JTC232 KBTV-CYEG
Flight info
| Callsign | JTC232 |
|---|---|
| Flight time | 3h 39m |
| Altitude | 43000 |
| Route | RIGID SSENA KODEX YYB YXZ TRUDY DCT YDN DCT TAGOT DCT CAMRA IGSOX3 |
| Aircraft | C750/M-SBDE3FGHRWXY/S |
Departure
| Time | 2026-04-28 21:08 |
|---|---|
| Airport | Patrick Leahy Burlington International Airport (KBTV) |
Arrival
| Time | 2026-04-29 00:48 |
|---|---|
| Airport | Edmonton International Airport (CYEG) |
| Time | Latitude | Longitude | Altitude | Speed | Heading |
|---|---|---|---|---|---|
| 2026-04-28 20:50 | 44.46557 | -73.14825 | 341 ft | 0 kts | 89° |
| 2026-04-28 21:01 | 44.46560 | -73.14789 | 341 ft | 8 kts | 73° |
| 2026-04-28 21:01 | 44.46587 | -73.14735 | 345 ft | 6 kts | 52° |
| 2026-04-28 21:01 | 44.46603 | -73.14673 | 342 ft | 9 kts | 86° |
| 2026-04-28 21:02 | 44.46627 | -73.14592 | 344 ft | 9 kts | 21° |
| 2026-04-28 21:02 | 44.46686 | -73.14645 | 343 ft | 14 kts | 311° |
| 2026-04-28 21:02 | 44.46766 | -73.14773 | 339 ft | 20 kts | 311° |
| 2026-04-28 21:02 | 44.46853 | -73.14914 | 338 ft | 20 kts | 311° |
| 2026-04-28 21:03 | 44.46939 | -73.15053 | 337 ft | 17 kts | 311° |
| 2026-04-28 21:03 | 44.47011 | -73.15168 | 338 ft | 15 kts | 311° |
| 2026-04-28 21:03 | 44.47083 | -73.15287 | 340 ft | 17 kts | 310° |
| 2026-04-28 21:03 | 44.47156 | -73.15406 | 347 ft | 16 kts | 311° |
| 2026-04-28 21:04 | 44.47237 | -73.15538 | 341 ft | 18 kts | 311° |
| 2026-04-28 21:04 | 44.47311 | -73.15657 | 338 ft | 16 kts | 311° |
| 2026-04-28 21:04 | 44.47383 | -73.15772 | 335 ft | 14 kts | 312° |
| 2026-04-28 21:04 | 44.47439 | -73.15866 | 335 ft | 8 kts | 297° |
| 2026-04-28 21:05 | 44.47481 | -73.15931 | 333 ft | 12 kts | 311° |
| 2026-04-28 21:05 | 44.47559 | -73.16057 | 334 ft | 21 kts | 311° |
| 2026-04-28 21:05 | 44.47650 | -73.16204 | 334 ft | 19 kts | 311° |
| 2026-04-28 21:05 | 44.47731 | -73.16335 | 337 ft | 16 kts | 310° |
| 2026-04-28 21:06 | 44.47800 | -73.16446 | 339 ft | 16 kts | 311° |
| 2026-04-28 21:06 | 44.47878 | -73.16575 | 337 ft | 19 kts | 310° |
| 2026-04-28 21:06 | 44.47958 | -73.16692 | 338 ft | 11 kts | 341° |
| 2026-04-28 21:06 | 44.48010 | -73.16642 | 339 ft | 9 kts | 42° |
| 2026-04-28 21:07 | 44.48051 | -73.16568 | 346 ft | 9 kts | 89° |
| 2026-04-28 21:07 | 44.48041 | -73.16542 | 345 ft | 1 kts | 128° |
| 2026-04-28 21:07 | 44.47756 | -73.16083 | 347 ft | 112 kts | 131° |
| 2026-04-28 21:07 | 44.47129 | -73.15079 | 534 ft | 149 kts | 135° |
| 2026-04-28 21:08 | 44.46667 | -73.14315 | 775 ft | 162 kts | 137° |
| 2026-04-28 21:08 | 44.45920 | -73.12934 | 1020 ft | 192 kts | 132° |
| 2026-04-28 21:08 | 44.45061 | -73.11369 | 1511 ft | 209 kts | 133° |
| 2026-04-28 21:08 | 44.43938 | -73.10221 | 2252 ft | 199 kts | 167° |
| 2026-04-28 21:09 | 44.42611 | -73.10353 | 3000 ft | 193 kts | 198° |
| 2026-04-28 21:09 | 44.41333 | -73.11243 | 3478 ft | 218 kts | 209° |
| 2026-04-28 21:09 | 44.40326 | -73.13002 | 3828 ft | 249 kts | 242° |
| 2026-04-28 21:09 | 44.39755 | -73.15306 | 4786 ft | 256 kts | 252° |
| 2026-04-28 21:10 | 44.39916 | -73.17873 | 5547 ft | 277 kts | 283° |
| 2026-04-28 21:10 | 44.40661 | -73.20364 | 6500 ft | 279 kts | 289° |
| 2026-04-28 21:10 | 44.41485 | -73.22837 | 7400 ft | 281 kts | 291° |
| 2026-04-28 21:10 | 44.42344 | -73.25293 | 8447 ft | 280 kts | 291° |
| 2026-04-28 21:11 | 44.43186 | -73.27745 | 9475 ft | 280 kts | 291° |
| 2026-04-28 21:11 | 44.44020 | -73.30214 | 10297 ft | 284 kts | 290° |
| 2026-04-28 21:11 | 44.44897 | -73.32826 | 10455 ft | 310 kts | 290° |
| 2026-04-28 21:11 | 44.45863 | -73.35678 | 10480 ft | 338 kts | 291° |
| 2026-04-28 21:12 | 44.46882 | -73.38653 | 10979 ft | 344 kts | 291° |
| 2026-04-28 21:12 | 44.47918 | -73.41691 | 11620 ft | 348 kts | 291° |
| 2026-04-28 21:12 | 44.48960 | -73.44788 | 12190 ft | 354 kts | 291° |
| 2026-04-28 21:12 | 44.50015 | -73.47919 | 12785 ft | 358 kts | 291° |
| 2026-04-28 21:13 | 44.51089 | -73.51091 | 13386 ft | 363 kts | 291° |
| 2026-04-28 21:13 | 44.52176 | -73.54315 | 13931 ft | 368 kts | 291° |
| 2026-04-28 21:13 | 44.53274 | -73.57578 | 14462 ft | 372 kts | 291° |
| 2026-04-28 21:13 | 44.54379 | -73.60863 | 15033 ft | 374 kts | 291° |
| 2026-04-28 21:14 | 44.55490 | -73.64169 | 15718 ft | 373 kts | 290° |
| 2026-04-28 21:14 | 44.56594 | -73.67458 | 16395 ft | 374 kts | 290° |
| 2026-04-28 21:14 | 44.57702 | -73.70766 | 17024 ft | 376 kts | 290° |
| 2026-04-28 21:14 | 44.58813 | -73.74091 | 17686 ft | 377 kts | 291° |
| 2026-04-28 21:15 | 44.59936 | -73.77434 | 18337 ft | 380 kts | 291° |
| 2026-04-28 21:15 | 44.61075 | -73.80789 | 18906 ft | 382 kts | 291° |
| 2026-04-28 21:15 | 44.62223 | -73.84174 | 19458 ft | 386 kts | 291° |
| 2026-04-28 21:15 | 44.63360 | -73.87561 | 19963 ft | 390 kts | 290° |
| 2026-04-28 21:16 | 44.64537 | -73.91066 | 20577 ft | 393 kts | 290° |
| 2026-04-28 21:16 | 44.65709 | -73.94546 | 21184 ft | 396 kts | 291° |
| 2026-04-28 21:16 | 44.66874 | -73.98016 | 21777 ft | 399 kts | 291° |
| 2026-04-28 21:16 | 44.68062 | -74.01560 | 22281 ft | 404 kts | 290° |
| 2026-04-28 21:17 | 44.69263 | -74.05151 | 22800 ft | 408 kts | 290° |
| 2026-04-28 21:17 | 44.70477 | -74.08782 | 23295 ft | 413 kts | 290° |
| 2026-04-28 21:17 | 44.71705 | -74.12459 | 23785 ft | 417 kts | 290° |
| 2026-04-28 21:17 | 44.72940 | -74.16163 | 24243 ft | 420 kts | 290° |
| 2026-04-28 21:18 | 44.74186 | -74.19905 | 24702 ft | 423 kts | 290° |
| 2026-04-28 21:18 | 44.75433 | -74.23657 | 25155 ft | 425 kts | 290° |
| 2026-04-28 21:18 | 44.76690 | -74.27442 | 25592 ft | 428 kts | 290° |
| 2026-04-28 21:18 | 44.77952 | -74.31252 | 26054 ft | 431 kts | 290° |
| 2026-04-28 21:19 | 44.79223 | -74.35091 | 26519 ft | 434 kts | 290° |
| 2026-04-28 21:19 | 44.80500 | -74.38956 | 26987 ft | 437 kts | 290° |
| 2026-04-28 21:19 | 44.81769 | -74.42799 | 27419 ft | 440 kts | 290° |
| 2026-04-28 21:19 | 44.83061 | -74.46722 | 27854 ft | 443 kts | 290° |
| 2026-04-28 21:20 | 44.84361 | -74.50672 | 28290 ft | 446 kts | 290° |
| 2026-04-28 21:20 | 44.85670 | -74.54655 | 28726 ft | 449 kts | 290° |
| 2026-04-28 21:20 | 44.86982 | -74.58654 | 29152 ft | 452 kts | 290° |
| 2026-04-28 21:20 | 44.88305 | -74.62693 | 29535 ft | 456 kts | 289° |
| 2026-04-28 21:21 | 44.89640 | -74.66779 | 29901 ft | 460 kts | 289° |
| 2026-04-28 21:21 | 44.90983 | -74.70889 | 30282 ft | 463 kts | 289° |
| 2026-04-28 21:21 | 44.92327 | -74.75029 | 30646 ft | 465 kts | 289° |
| 2026-04-28 21:21 | 44.93634 | -74.79209 | 31029 ft | 466 kts | 288° |
| 2026-04-28 21:22 | 44.94925 | -74.83398 | 31611 ft | 463 kts | 288° |
| 2026-04-28 21:22 | 44.96230 | -74.87550 | 32158 ft | 462 kts | 288° |
| 2026-04-28 21:22 | 44.97543 | -74.91692 | 32626 ft | 462 kts | 288° |
| 2026-04-28 21:22 | 44.98843 | -74.95847 | 33162 ft | 461 kts | 287° |
| 2026-04-28 21:23 | 45.00128 | -74.99990 | 33750 ft | 459 kts | 287° |
| 2026-04-28 21:23 | 45.01412 | -75.04113 | 34279 ft | 457 kts | 287° |
| 2026-04-28 21:23 | 45.02694 | -75.08214 | 34818 ft | 454 kts | 287° |
| 2026-04-28 21:23 | 45.03960 | -75.12283 | 35407 ft | 450 kts | 287° |
| 2026-04-28 21:24 | 45.05207 | -75.16310 | 36002 ft | 445 kts | 287° |
| 2026-04-28 21:24 | 45.06443 | -75.20302 | 36609 ft | 441 kts | 287° |
| 2026-04-28 21:24 | 45.07736 | -75.24234 | 37208 ft | 439 kts | 289° |
| 2026-04-28 21:24 | 45.09026 | -75.28119 | 37877 ft | 434 kts | 289° |
| 2026-04-28 21:25 | 45.10279 | -75.31935 | 38333 ft | 434 kts | 289° |
| 2026-04-28 21:25 | 45.11553 | -75.35813 | 38793 ft | 433 kts | 289° |
| 2026-04-28 21:25 | 45.12829 | -75.39670 | 39207 ft | 432 kts | 289° |
| 2026-04-28 21:25 | 45.14100 | -75.43525 | 39570 ft | 432 kts | 289° |
| 2026-04-28 21:26 | 45.15367 | -75.47390 | 39934 ft | 432 kts | 289° |
| 2026-04-28 21:26 | 45.16648 | -75.51298 | 40303 ft | 432 kts | 289° |
| 2026-04-28 21:26 | 45.17916 | -75.55166 | 40670 ft | 432 kts | 289° |
| 2026-04-28 21:26 | 45.19182 | -75.59036 | 41046 ft | 432 kts | 289° |
| 2026-04-28 21:27 | 45.20428 | -75.62851 | 41432 ft | 433 kts | 290° |
| 2026-04-28 21:27 | 45.21694 | -75.66735 | 41706 ft | 435 kts | 290° |
| 2026-04-28 21:27 | 45.22963 | -75.70634 | 42049 ft | 435 kts | 290° |
| 2026-04-28 21:27 | 45.24232 | -75.74532 | 42412 ft | 435 kts | 290° |
| 2026-04-28 21:28 | 45.25498 | -75.78431 | 42765 ft | 434 kts | 290° |
| 2026-04-28 21:28 | 45.26762 | -75.82331 | 42987 ft | 436 kts | 290° |
| 2026-04-28 21:28 | 45.29338 | -75.90307 | 42987 ft | 452 kts | 290° |
| 2026-04-28 21:29 | 45.32000 | -75.98554 | 42981 ft | 466 kts | 290° |
| 2026-04-28 21:29 | 45.34711 | -76.06983 | 42983 ft | 470 kts | 290° |
| 2026-04-28 21:30 | 45.37421 | -76.15443 | 42979 ft | 471 kts | 290° |
| 2026-04-28 21:30 | 45.40127 | -76.23918 | 42982 ft | 471 kts | 290° |
| 2026-04-28 21:31 | 45.42811 | -76.32349 | 42977 ft | 472 kts | 290° |
| 2026-04-28 21:31 | 45.45512 | -76.40864 | 42968 ft | 471 kts | 290° |
| 2026-04-28 21:32 | 45.48205 | -76.49380 | 42967 ft | 471 kts | 290° |
| 2026-04-28 21:32 | 45.50891 | -76.57903 | 42966 ft | 471 kts | 290° |
| 2026-04-28 21:33 | 45.53569 | -76.66428 | 42973 ft | 471 kts | 290° |
| 2026-04-28 21:33 | 45.56246 | -76.74979 | 42962 ft | 472 kts | 290° |
| 2026-04-28 21:34 | 45.58897 | -76.83476 | 42960 ft | 472 kts | 290° |
| 2026-04-28 21:34 | 45.61561 | -76.92041 | 42960 ft | 472 kts | 290° |
| 2026-04-28 21:35 | 45.64221 | -77.00624 | 42964 ft | 472 kts | 290° |
| 2026-04-28 21:35 | 45.66882 | -77.09240 | 42944 ft | 474 kts | 290° |
| 2026-04-28 21:36 | 45.69538 | -77.17867 | 42941 ft | 474 kts | 290° |
| 2026-04-28 21:36 | 45.72186 | -77.26497 | 42932 ft | 474 kts | 290° |
| 2026-04-28 21:37 | 45.74828 | -77.35136 | 42943 ft | 474 kts | 290° |
| 2026-04-28 21:37 | 45.77465 | -77.43791 | 42926 ft | 473 kts | 290° |
| 2026-04-28 21:38 | 45.80075 | -77.52386 | 42923 ft | 474 kts | 290° |
| 2026-04-28 21:38 | 45.82696 | -77.61046 | 42921 ft | 474 kts | 290° |
| 2026-04-28 21:39 | 45.85315 | -77.69730 | 42916 ft | 474 kts | 290° |
| 2026-04-28 21:39 | 45.87923 | -77.78405 | 42905 ft | 474 kts | 290° |
| 2026-04-28 21:40 | 45.90526 | -77.87097 | 42898 ft | 474 kts | 290° |
| 2026-04-28 21:40 | 45.93125 | -77.95801 | 42899 ft | 474 kts | 290° |
| 2026-04-28 21:41 | 45.95722 | -78.04533 | 42897 ft | 475 kts | 290° |
| 2026-04-28 21:41 | 45.98312 | -78.13269 | 42888 ft | 474 kts | 290° |
| 2026-04-28 21:42 | 46.00874 | -78.21944 | 42875 ft | 474 kts | 290° |
| 2026-04-28 21:42 | 46.03447 | -78.30686 | 42875 ft | 474 kts | 290° |
| 2026-04-28 21:43 | 46.06013 | -78.39435 | 42865 ft | 475 kts | 290° |
| 2026-04-28 21:43 | 46.08572 | -78.48190 | 42860 ft | 472 kts | 289° |
| 2026-04-28 21:44 | 46.11111 | -78.56909 | 42856 ft | 472 kts | 289° |
| 2026-04-28 21:44 | 46.13647 | -78.65649 | 42852 ft | 472 kts | 289° |
| 2026-04-28 21:45 | 46.16175 | -78.74389 | 42850 ft | 472 kts | 289° |
| 2026-04-28 21:45 | 46.18701 | -78.83155 | 42845 ft | 472 kts | 289° |
| 2026-04-28 21:46 | 46.21212 | -78.91899 | 42842 ft | 472 kts | 289° |
| 2026-04-28 21:46 | 46.23717 | -79.00653 | 42837 ft | 472 kts | 289° |
| 2026-04-28 21:47 | 46.26216 | -79.09421 | 42833 ft | 471 kts | 289° |
| 2026-04-28 21:47 | 46.28692 | -79.18139 | 42822 ft | 472 kts | 289° |
| 2026-04-28 21:48 | 46.31174 | -79.26909 | 42815 ft | 471 kts | 289° |
| 2026-04-28 21:48 | 46.33650 | -79.35688 | 42813 ft | 471 kts | 289° |
| 2026-04-28 21:49 | 46.36138 | -79.44464 | 42812 ft | 472 kts | 291° |
| 2026-04-28 21:49 | 46.38964 | -79.53057 | 42826 ft | 473 kts | 292° |
| 2026-04-28 21:50 | 46.41765 | -79.61653 | 42826 ft | 472 kts | 291° |
| 2026-04-28 21:50 | 46.44572 | -79.70267 | 42824 ft | 472 kts | 292° |
| 2026-04-28 21:51 | 46.47364 | -79.78873 | 42820 ft | 471 kts | 291° |
| 2026-04-28 21:51 | 46.50153 | -79.87491 | 42818 ft | 472 kts | 291° |
| 2026-04-28 21:52 | 46.52912 | -79.96053 | 42817 ft | 471 kts | 291° |
| 2026-04-28 21:52 | 46.55691 | -80.04700 | 42801 ft | 472 kts | 291° |
| 2026-04-28 21:53 | 46.58464 | -80.13360 | 42804 ft | 472 kts | 291° |
| 2026-04-28 21:53 | 46.61228 | -80.22020 | 42800 ft | 472 kts | 291° |
| 2026-04-28 21:54 | 46.63986 | -80.30692 | 42799 ft | 473 kts | 291° |
| 2026-04-28 21:54 | 46.66744 | -80.39392 | 42794 ft | 473 kts | 291° |
| 2026-04-28 21:55 | 46.69492 | -80.48093 | 42793 ft | 473 kts | 291° |
| 2026-04-28 21:55 | 46.72233 | -80.56799 | 42788 ft | 473 kts | 291° |
| 2026-04-28 21:56 | 46.74971 | -80.65525 | 42780 ft | 474 kts | 291° |
| 2026-04-28 21:56 | 46.77688 | -80.74215 | 42779 ft | 473 kts | 291° |
| 2026-04-28 21:57 | 46.80412 | -80.82959 | 42780 ft | 473 kts | 291° |
| 2026-04-28 21:57 | 46.83135 | -80.91727 | 42779 ft | 474 kts | 291° |
| 2026-04-28 21:58 | 46.85394 | -80.99025 | 42779 ft | 474 kts | 291° |
| 2026-04-28 21:58 | 46.88109 | -81.07826 | 42774 ft | 475 kts | 291° |
| 2026-04-28 21:59 | 46.90817 | -81.16631 | 42773 ft | 475 kts | 291° |
| 2026-04-28 22:00 | 46.94866 | -81.29856 | 42776 ft | 475 kts | 291° |
| 2026-04-28 22:00 | 46.97558 | -81.38692 | 42777 ft | 475 kts | 291° |
| 2026-04-28 22:01 | 47.00242 | -81.47530 | 42775 ft | 475 kts | 291° |
| 2026-04-28 22:01 | 47.02918 | -81.56371 | 42775 ft | 475 kts | 290° |
| 2026-04-28 22:02 | 47.05586 | -81.65219 | 42777 ft | 475 kts | 290° |
| 2026-04-28 22:02 | 47.08248 | -81.74079 | 42784 ft | 474 kts | 290° |
| 2026-04-28 22:03 | 47.10906 | -81.82958 | 42786 ft | 476 kts | 290° |
| 2026-04-28 22:03 | 47.13561 | -81.91856 | 42781 ft | 475 kts | 290° |
| 2026-04-28 22:04 | 47.16206 | -82.00754 | 42783 ft | 475 kts | 290° |
| 2026-04-28 22:04 | 47.18846 | -82.09665 | 42782 ft | 475 kts | 290° |
| 2026-04-28 22:05 | 47.21461 | -82.18527 | 42775 ft | 475 kts | 290° |
| 2026-04-28 22:05 | 47.24085 | -82.27449 | 42778 ft | 475 kts | 290° |
| 2026-04-28 22:06 | 47.26705 | -82.36391 | 42776 ft | 475 kts | 290° |
| 2026-04-28 22:06 | 47.29314 | -82.45330 | 42782 ft | 475 kts | 290° |
| 2026-04-28 22:07 | 47.31917 | -82.54277 | 42790 ft | 475 kts | 290° |
| 2026-04-28 22:07 | 47.34510 | -82.63225 | 42780 ft | 475 kts | 290° |
| 2026-04-28 22:08 | 47.37100 | -82.72195 | 42783 ft | 476 kts | 290° |
| 2026-04-28 22:08 | 47.39684 | -82.81177 | 42784 ft | 476 kts | 290° |
| 2026-04-28 22:09 | 47.42244 | -82.90111 | 42779 ft | 476 kts | 290° |
| 2026-04-28 22:09 | 47.44821 | -82.99134 | 42780 ft | 477 kts | 290° |
| 2026-04-28 22:10 | 47.47391 | -83.08166 | 42785 ft | 477 kts | 290° |
| 2026-04-28 22:10 | 47.49951 | -83.17201 | 42795 ft | 476 kts | 290° |
| 2026-04-28 22:11 | 47.52508 | -83.26257 | 42782 ft | 477 kts | 290° |
| 2026-04-28 22:11 | 47.55057 | -83.35317 | 42780 ft | 477 kts | 290° |
| 2026-04-28 22:12 | 47.57601 | -83.44396 | 42782 ft | 477 kts | 290° |
| 2026-04-28 22:12 | 47.60139 | -83.53484 | 42788 ft | 477 kts | 290° |
| 2026-04-28 22:13 | 47.62671 | -83.62590 | 42794 ft | 477 kts | 289° |
| 2026-04-28 22:13 | 47.65194 | -83.71697 | 42790 ft | 478 kts | 289° |
| 2026-04-28 22:14 | 47.67697 | -83.80766 | 42788 ft | 478 kts | 289° |
| 2026-04-28 22:14 | 47.70207 | -83.89893 | 42788 ft | 478 kts | 289° |
| 2026-04-28 22:15 | 47.72710 | -83.99032 | 42794 ft | 478 kts | 289° |
| 2026-04-28 22:15 | 47.75206 | -84.08180 | 42784 ft | 477 kts | 289° |
| 2026-04-28 22:16 | 47.77695 | -84.17337 | 42788 ft | 478 kts | 289° |
| 2026-04-28 22:16 | 47.80177 | -84.26506 | 42797 ft | 478 kts | 289° |
| 2026-04-28 22:17 | 47.82651 | -84.35681 | 42801 ft | 478 kts | 289° |
| 2026-04-28 22:17 | 47.85119 | -84.44868 | 42792 ft | 478 kts | 289° |
| 2026-04-28 22:18 | 47.87578 | -84.54059 | 42781 ft | 477 kts | 289° |
| 2026-04-28 22:18 | 47.90027 | -84.63248 | 42784 ft | 479 kts | 289° |
| 2026-04-28 22:19 | 47.92476 | -84.72470 | 42782 ft | 478 kts | 289° |
| 2026-04-28 22:19 | 47.94918 | -84.81707 | 42782 ft | 478 kts | 289° |
| 2026-04-28 22:20 | 47.97494 | -84.90816 | 42803 ft | 479 kts | 290° |
| 2026-04-28 22:20 | 48.00067 | -84.99998 | 42780 ft | 479 kts | 290° |
| 2026-04-28 22:21 | 48.02651 | -85.09165 | 42790 ft | 479 kts | 290° |
| 2026-04-28 22:21 | 48.05218 | -85.18358 | 42790 ft | 479 kts | 290° |
| 2026-04-28 22:22 | 48.07782 | -85.27551 | 42802 ft | 479 kts | 290° |
| 2026-04-28 22:22 | 48.10334 | -85.36745 | 42802 ft | 479 kts | 290° |
| 2026-04-28 22:23 | 48.12882 | -85.45959 | 42816 ft | 479 kts | 290° |
| 2026-04-28 22:23 | 48.15424 | -85.55188 | 42812 ft | 481 kts | 290° |
| 2026-04-28 22:24 | 48.17964 | -85.64443 | 42811 ft | 480 kts | 290° |
| 2026-04-28 22:24 | 48.20494 | -85.73701 | 42819 ft | 481 kts | 290° |
| 2026-04-28 22:25 | 48.23019 | -85.82973 | 42816 ft | 480 kts | 289° |
| 2026-04-28 22:25 | 48.25539 | -85.92265 | 42820 ft | 480 kts | 289° |
| 2026-04-28 22:26 | 48.28051 | -86.01568 | 42823 ft | 480 kts | 289° |
| 2026-04-28 22:26 | 48.30556 | -86.10876 | 42837 ft | 480 kts | 289° |
| 2026-04-28 22:27 | 48.33051 | -86.20187 | 42838 ft | 480 kts | 289° |
| 2026-04-28 22:27 | 48.35519 | -86.29434 | 42837 ft | 480 kts | 289° |
| 2026-04-28 22:28 | 48.37995 | -86.38748 | 42846 ft | 480 kts | 289° |
| 2026-04-28 22:28 | 48.40470 | -86.48097 | 42847 ft | 481 kts | 289° |
| 2026-04-28 22:29 | 48.42936 | -86.57448 | 42852 ft | 481 kts | 289° |
| 2026-04-28 22:29 | 48.45394 | -86.66807 | 42833 ft | 481 kts | 289° |
| 2026-04-28 22:30 | 48.47846 | -86.76181 | 42849 ft | 481 kts | 289° |
| 2026-04-28 22:30 | 48.50290 | -86.85563 | 42849 ft | 480 kts | 289° |
| 2026-04-28 22:31 | 48.52726 | -86.94950 | 42851 ft | 481 kts | 289° |
| 2026-04-28 22:31 | 48.55155 | -87.04352 | 42846 ft | 481 kts | 289° |
| 2026-04-28 22:32 | 48.57581 | -87.13780 | 42857 ft | 481 kts | 289° |
| 2026-04-28 22:32 | 48.59996 | -87.23206 | 42866 ft | 481 kts | 289° |
| 2026-04-28 22:33 | 48.62406 | -87.32646 | 42866 ft | 481 kts | 289° |
| 2026-04-28 22:33 | 48.64795 | -87.42048 | 42875 ft | 482 kts | 289° |
| 2026-04-28 22:34 | 48.67187 | -87.51497 | 42875 ft | 481 kts | 289° |
| 2026-04-28 22:34 | 48.69585 | -87.61015 | 42888 ft | 480 kts | 289° |
| 2026-04-28 22:35 | 48.71943 | -87.70410 | 42878 ft | 480 kts | 288° |
| 2026-04-28 22:35 | 48.74314 | -87.79895 | 42887 ft | 481 kts | 288° |
| 2026-04-28 22:36 | 48.76673 | -87.89373 | 42884 ft | 480 kts | 288° |
| 2026-04-28 22:36 | 48.79019 | -87.98845 | 42894 ft | 480 kts | 288° |
| 2026-04-28 22:37 | 48.81357 | -88.08315 | 42900 ft | 479 kts | 288° |
| 2026-04-28 22:37 | 48.83684 | -88.17788 | 42899 ft | 480 kts | 288° |
| 2026-04-28 22:38 | 48.86009 | -88.27289 | 42913 ft | 480 kts | 288° |
| 2026-04-28 22:38 | 48.88320 | -88.36778 | 42908 ft | 478 kts | 288° |
| 2026-04-28 22:39 | 48.90622 | -88.46267 | 42913 ft | 479 kts | 288° |
| 2026-04-28 22:39 | 48.92933 | -88.55762 | 42913 ft | 479 kts | 289° |
| 2026-04-28 22:40 | 48.95317 | -88.65249 | 42927 ft | 479 kts | 289° |
| 2026-04-28 22:40 | 48.97646 | -88.74757 | 42928 ft | 479 kts | 288° |
| 2026-04-28 22:41 | 48.99991 | -88.84254 | 42938 ft | 479 kts | 289° |
| 2026-04-28 22:41 | 49.02298 | -88.93705 | 42938 ft | 479 kts | 288° |
| 2026-04-28 22:42 | 49.04619 | -89.03215 | 42956 ft | 479 kts | 288° |
| 2026-04-28 22:42 | 49.06556 | -89.11197 | 42952 ft | 479 kts | 288° |
| 2026-04-28 22:43 | 49.08846 | -89.20672 | 42958 ft | 481 kts | 288° |
| 2026-04-28 22:43 | 49.11167 | -89.30311 | 42969 ft | 481 kts | 288° |
| 2026-04-28 22:44 | 49.13464 | -89.39894 | 42975 ft | 481 kts | 288° |
| 2026-04-28 22:44 | 49.15738 | -89.49426 | 42978 ft | 480 kts | 288° |
| 2026-04-28 22:45 | 49.18017 | -89.59017 | 42981 ft | 480 kts | 288° |
| 2026-04-28 22:45 | 49.20290 | -89.68625 | 42987 ft | 480 kts | 288° |
| 2026-04-28 22:46 | 49.22558 | -89.78257 | 42986 ft | 480 kts | 288° |
| 2026-04-28 22:46 | 49.24817 | -89.87892 | 42990 ft | 480 kts | 288° |
| 2026-04-28 22:47 | 49.27064 | -89.97519 | 42989 ft | 480 kts | 288° |
| 2026-04-28 22:47 | 49.29294 | -90.07115 | 42991 ft | 482 kts | 288° |
| 2026-04-28 22:48 | 49.31536 | -90.16806 | 42992 ft | 484 kts | 288° |
| 2026-04-28 22:48 | 49.33774 | -90.26524 | 42995 ft | 483 kts | 288° |
| 2026-04-28 22:49 | 49.36006 | -90.36262 | 42997 ft | 483 kts | 287° |
| 2026-04-28 22:49 | 49.38227 | -90.45994 | 43003 ft | 483 kts | 287° |
| 2026-04-28 22:50 | 49.40439 | -90.55734 | 43000 ft | 483 kts | 287° |
| 2026-04-28 22:50 | 49.42643 | -90.65481 | 43001 ft | 483 kts | 287° |
| 2026-04-28 22:51 | 49.44840 | -90.75244 | 43007 ft | 483 kts | 287° |
| 2026-04-28 22:51 | 49.47026 | -90.85004 | 43006 ft | 483 kts | 287° |
| 2026-04-28 22:52 | 49.49191 | -90.94713 | 43003 ft | 483 kts | 287° |
| 2026-04-28 22:52 | 49.51359 | -91.04480 | 43004 ft | 483 kts | 287° |
| 2026-04-28 22:53 | 49.53523 | -91.14278 | 43019 ft | 484 kts | 287° |
| 2026-04-28 22:53 | 49.55680 | -91.24090 | 43019 ft | 483 kts | 287° |
| 2026-04-28 22:54 | 49.57829 | -91.33908 | 43017 ft | 483 kts | 287° |
| 2026-04-28 22:54 | 49.59967 | -91.43724 | 43016 ft | 483 kts | 287° |
| 2026-04-28 22:55 | 49.62094 | -91.53541 | 43019 ft | 483 kts | 287° |
| 2026-04-28 22:55 | 49.64215 | -91.63374 | 43015 ft | 483 kts | 287° |
| 2026-04-28 22:56 | 49.66327 | -91.73212 | 43020 ft | 483 kts | 287° |
| 2026-04-28 22:56 | 49.68417 | -91.82991 | 43017 ft | 483 kts | 286° |
| 2026-04-28 22:57 | 49.70512 | -91.92849 | 43022 ft | 483 kts | 286° |
| 2026-04-28 22:57 | 49.72603 | -92.02728 | 43022 ft | 483 kts | 286° |
| 2026-04-28 22:58 | 49.74687 | -92.12627 | 43021 ft | 485 kts | 286° |
| 2026-04-28 22:58 | 49.76766 | -92.22547 | 43024 ft | 485 kts | 286° |
| 2026-04-28 22:59 | 49.78835 | -92.32473 | 43007 ft | 485 kts | 286° |
| 2026-04-28 22:59 | 49.80899 | -92.42423 | 42995 ft | 485 kts | 286° |
| 2026-04-28 23:00 | 49.82942 | -92.52320 | 42984 ft | 485 kts | 286° |
| 2026-04-28 23:00 | 49.84989 | -92.62284 | 42977 ft | 485 kts | 286° |
| 2026-04-28 23:01 | 49.87025 | -92.72247 | 42988 ft | 485 kts | 285° |
| 2026-04-28 23:01 | 49.89056 | -92.82238 | 43041 ft | 486 kts | 285° |
| 2026-04-28 23:02 | 49.91078 | -92.92234 | 43041 ft | 486 kts | 285° |
| 2026-04-28 23:02 | 49.93094 | -93.02247 | 43052 ft | 486 kts | 285° |
| 2026-04-28 23:03 | 49.95104 | -93.12283 | 43045 ft | 487 kts | 285° |
| 2026-04-28 23:03 | 49.97105 | -93.22329 | 43042 ft | 486 kts | 285° |
| 2026-04-28 23:04 | 49.99094 | -93.32367 | 43049 ft | 486 kts | 285° |
| 2026-04-28 23:04 | 50.02053 | -93.47392 | 43057 ft | 486 kts | 285° |
| 2026-04-28 23:05 | 50.04022 | -93.57457 | 43057 ft | 486 kts | 285° |
| 2026-04-28 23:05 | 50.05983 | -93.67534 | 43069 ft | 486 kts | 285° |
| 2026-04-28 23:06 | 50.07931 | -93.77596 | 43068 ft | 486 kts | 285° |
| 2026-04-28 23:06 | 50.09873 | -93.87681 | 43083 ft | 486 kts | 285° |
| 2026-04-28 23:07 | 50.11806 | -93.97773 | 43082 ft | 486 kts | 285° |
| 2026-04-28 23:07 | 50.13732 | -94.07883 | 43086 ft | 486 kts | 285° |
| 2026-04-28 23:08 | 50.15646 | -94.17985 | 43085 ft | 486 kts | 285° |
| 2026-04-28 23:08 | 50.17540 | -94.28032 | 43094 ft | 486 kts | 285° |
| 2026-04-28 23:09 | 50.19439 | -94.38165 | 43098 ft | 486 kts | 285° |
| 2026-04-28 23:09 | 50.21327 | -94.48291 | 43097 ft | 486 kts | 285° |
| 2026-04-28 23:10 | 50.23209 | -94.58436 | 43102 ft | 486 kts | 285° |
| 2026-04-28 23:10 | 50.25079 | -94.68579 | 43110 ft | 485 kts | 285° |
| 2026-04-28 23:11 | 50.26939 | -94.78720 | 43116 ft | 485 kts | 284° |
| 2026-04-28 23:11 | 50.28791 | -94.88874 | 43116 ft | 485 kts | 284° |
| 2026-04-28 23:12 | 50.30621 | -94.98965 | 43122 ft | 486 kts | 284° |
| 2026-04-28 23:12 | 50.32455 | -95.09135 | 43125 ft | 486 kts | 284° |
| 2026-04-28 23:13 | 50.34284 | -95.19330 | 43126 ft | 486 kts | 284° |
| 2026-04-28 23:13 | 50.36103 | -95.29528 | 43129 ft | 486 kts | 284° |
| 2026-04-28 23:14 | 50.37914 | -95.39743 | 43133 ft | 486 kts | 284° |
| 2026-04-28 23:14 | 50.39715 | -95.49953 | 43133 ft | 486 kts | 284° |
| 2026-04-28 23:15 | 50.41507 | -95.60176 | 43146 ft | 486 kts | 284° |
| 2026-04-28 23:15 | 50.43290 | -95.70407 | 43147 ft | 486 kts | 284° |
| 2026-04-28 23:16 | 50.45064 | -95.80643 | 43150 ft | 486 kts | 284° |
| 2026-04-28 23:16 | 50.46829 | -95.90885 | 43159 ft | 486 kts | 284° |
| 2026-04-28 23:17 | 50.48585 | -96.01140 | 43159 ft | 486 kts | 284° |
| 2026-04-28 23:17 | 50.50335 | -96.11418 | 43154 ft | 487 kts | 284° |
| 2026-04-28 23:18 | 50.52067 | -96.21649 | 43160 ft | 487 kts | 284° |
| 2026-04-28 23:18 | 50.53801 | -96.31953 | 43164 ft | 487 kts | 284° |
| 2026-04-28 23:19 | 50.55525 | -96.42257 | 43175 ft | 487 kts | 284° |
| 2026-04-28 23:19 | 50.57239 | -96.52568 | 43172 ft | 487 kts | 284° |
| 2026-04-28 23:20 | 50.58945 | -96.62893 | 43167 ft | 487 kts | 284° |
| 2026-04-28 23:20 | 50.60644 | -96.73234 | 43166 ft | 487 kts | 284° |
| 2026-04-28 23:21 | 50.62331 | -96.83569 | 43167 ft | 487 kts | 283° |
| 2026-04-28 23:21 | 50.64010 | -96.93914 | 43160 ft | 487 kts | 283° |
| 2026-04-28 23:22 | 50.65399 | -97.02523 | 43160 ft | 487 kts | 283° |
| 2026-04-28 23:22 | 50.67344 | -97.14657 | 43158 ft | 489 kts | 283° |
| 2026-04-28 23:23 | 50.68998 | -97.25042 | 43159 ft | 488 kts | 283° |
| 2026-04-28 23:23 | 50.70644 | -97.35447 | 43162 ft | 488 kts | 283° |
| 2026-04-28 23:24 | 50.72270 | -97.45786 | 43164 ft | 488 kts | 283° |
| 2026-04-28 23:24 | 50.73898 | -97.56206 | 43172 ft | 487 kts | 283° |
| 2026-04-28 23:25 | 50.75513 | -97.66604 | 43169 ft | 488 kts | 283° |
| 2026-04-28 23:25 | 50.77120 | -97.77023 | 43167 ft | 488 kts | 283° |
| 2026-04-28 23:26 | 50.78717 | -97.87444 | 43169 ft | 487 kts | 283° |
| 2026-04-28 23:26 | 50.80305 | -97.97870 | 43177 ft | 488 kts | 283° |
| 2026-04-28 23:27 | 50.81883 | -98.08307 | 43168 ft | 488 kts | 283° |
| 2026-04-28 23:27 | 50.83444 | -98.18690 | 43184 ft | 488 kts | 283° |
| 2026-04-28 23:28 | 50.85006 | -98.29152 | 43181 ft | 488 kts | 283° |
| 2026-04-28 23:28 | 50.86558 | -98.39617 | 43184 ft | 488 kts | 283° |
| 2026-04-28 23:29 | 50.88100 | -98.50086 | 43179 ft | 488 kts | 283° |
| 2026-04-28 23:29 | 50.89633 | -98.60564 | 43186 ft | 488 kts | 283° |
| 2026-04-28 23:30 | 50.90900 | -98.69279 | 43185 ft | 488 kts | 283° |
| 2026-04-28 23:30 | 50.92415 | -98.79764 | 43181 ft | 488 kts | 282° |
| 2026-04-28 23:31 | 50.93921 | -98.90258 | 43179 ft | 488 kts | 282° |
| 2026-04-28 23:31 | 50.95419 | -99.00770 | 43179 ft | 488 kts | 282° |
| 2026-04-28 23:32 | 50.96907 | -99.11280 | 43182 ft | 488 kts | 282° |
| 2026-04-28 23:32 | 50.98386 | -99.21804 | 43186 ft | 489 kts | 282° |
| 2026-04-28 23:33 | 50.99856 | -99.32340 | 43192 ft | 488 kts | 282° |
| 2026-04-28 23:33 | 51.01317 | -99.42881 | 43182 ft | 488 kts | 282° |
| 2026-04-28 23:34 | 51.02758 | -99.53357 | 43185 ft | 488 kts | 282° |
| 2026-04-28 23:34 | 51.04199 | -99.63903 | 43179 ft | 488 kts | 282° |
| 2026-04-28 23:35 | 51.05630 | -99.74452 | 43169 ft | 488 kts | 282° |
| 2026-04-28 23:35 | 51.07051 | -99.85010 | 43163 ft | 488 kts | 282° |
| 2026-04-28 23:36 | 51.08463 | -99.95579 | 43155 ft | 488 kts | 282° |
| 2026-04-28 23:36 | 51.09875 | -100.06081 | 43148 ft | 487 kts | 283° |
| 2026-04-28 23:37 | 51.11860 | -100.16390 | 43165 ft | 488 kts | 287° |
| 2026-04-28 23:37 | 51.13869 | -100.26731 | 43165 ft | 489 kts | 287° |
| 2026-04-28 23:38 | 51.15859 | -100.37100 | 43196 ft | 489 kts | 287° |
| 2026-04-28 23:38 | 51.17851 | -100.47455 | 43196 ft | 489 kts | 287° |
| 2026-04-28 23:39 | 51.19821 | -100.57826 | 43189 ft | 488 kts | 287° |
| 2026-04-28 23:39 | 51.21788 | -100.68178 | 43189 ft | 488 kts | 287° |
| 2026-04-28 23:40 | 51.23739 | -100.78545 | 43189 ft | 488 kts | 287° |
| 2026-04-28 23:40 | 51.25675 | -100.88860 | 43189 ft | 488 kts | 286° |
| 2026-04-28 23:41 | 51.27611 | -100.99248 | 43190 ft | 488 kts | 286° |
| 2026-04-28 23:41 | 51.29540 | -101.09653 | 43195 ft | 489 kts | 286° |
| 2026-04-28 23:42 | 51.31453 | -101.20034 | 43203 ft | 486 kts | 286° |
| 2026-04-28 23:42 | 51.33357 | -101.30418 | 43207 ft | 488 kts | 286° |
| 2026-04-28 23:43 | 51.35251 | -101.40809 | 43209 ft | 486 kts | 286° |
| 2026-04-28 23:43 | 51.37138 | -101.51219 | 43204 ft | 489 kts | 286° |
| 2026-04-28 23:44 | 51.39017 | -101.61648 | 43208 ft | 488 kts | 286° |
| 2026-04-28 23:44 | 51.40890 | -101.72099 | 43209 ft | 487 kts | 286° |
| 2026-04-28 23:45 | 51.42734 | -101.82456 | 43211 ft | 488 kts | 286° |
| 2026-04-28 23:45 | 51.44586 | -101.92909 | 43209 ft | 488 kts | 286° |
| 2026-04-28 23:46 | 51.46433 | -102.03400 | 43219 ft | 489 kts | 286° |
| 2026-04-28 23:46 | 51.48269 | -102.13893 | 43213 ft | 487 kts | 286° |
| 2026-04-28 23:47 | 51.50094 | -102.24373 | 43206 ft | 487 kts | 286° |
| 2026-04-28 23:47 | 51.51909 | -102.34871 | 43206 ft | 488 kts | 285° |
| 2026-04-28 23:48 | 51.53715 | -102.45373 | 43205 ft | 488 kts | 285° |
| 2026-04-28 23:48 | 51.55513 | -102.55891 | 43208 ft | 488 kts | 285° |
| 2026-04-28 23:49 | 51.57299 | -102.66407 | 43203 ft | 486 kts | 285° |
| 2026-04-28 23:49 | 51.59072 | -102.76904 | 43212 ft | 486 kts | 285° |
| 2026-04-28 23:50 | 51.60827 | -102.87360 | 43213 ft | 488 kts | 285° |
| 2026-04-28 23:50 | 51.62584 | -102.97894 | 43213 ft | 487 kts | 285° |
| 2026-04-28 23:51 | 51.64330 | -103.08428 | 43222 ft | 486 kts | 285° |
| 2026-04-28 23:51 | 51.66069 | -103.18976 | 43218 ft | 487 kts | 285° |
| 2026-04-28 23:52 | 51.67796 | -103.29527 | 43224 ft | 487 kts | 285° |
| 2026-04-28 23:52 | 51.69516 | -103.40095 | 43220 ft | 487 kts | 285° |
| 2026-04-28 23:53 | 51.71226 | -103.50668 | 43225 ft | 487 kts | 285° |
| 2026-04-28 23:53 | 51.72927 | -103.61252 | 43231 ft | 487 kts | 285° |
| 2026-04-28 23:54 | 51.74619 | -103.71845 | 43227 ft | 488 kts | 285° |
| 2026-04-28 23:54 | 51.76300 | -103.82443 | 43229 ft | 487 kts | 285° |
| 2026-04-28 23:55 | 51.77961 | -103.92980 | 43248 ft | 488 kts | 285° |
| 2026-04-28 23:55 | 51.79624 | -104.03597 | 43244 ft | 488 kts | 284° |
| 2026-04-28 23:56 | 51.81280 | -104.14239 | 43242 ft | 487 kts | 284° |
| 2026-04-28 23:56 | 51.82924 | -104.24872 | 43241 ft | 487 kts | 284° |
| 2026-04-28 23:57 | 51.84559 | -104.35518 | 43242 ft | 487 kts | 284° |
| 2026-04-28 23:57 | 51.86182 | -104.46159 | 43241 ft | 487 kts | 284° |
| 2026-04-28 23:58 | 51.87797 | -104.56815 | 43248 ft | 488 kts | 284° |
| 2026-04-28 23:58 | 51.89402 | -104.67476 | 43245 ft | 488 kts | 284° |
| 2026-04-28 23:59 | 51.90999 | -104.78155 | 43245 ft | 488 kts | 284° |
| 2026-04-28 23:59 | 51.92583 | -104.88816 | 43235 ft | 487 kts | 284° |
| 2026-04-29 00:00 | 51.94147 | -104.99421 | 43248 ft | 487 kts | 284° |
| 2026-04-29 00:00 | 51.95710 | -105.10091 | 43235 ft | 487 kts | 284° |
| 2026-04-29 00:01 | 51.97266 | -105.20783 | 43236 ft | 487 kts | 284° |
| 2026-04-29 00:01 | 51.98812 | -105.31483 | 43239 ft | 487 kts | 284° |
| 2026-04-29 00:02 | 52.00347 | -105.42176 | 43241 ft | 486 kts | 284° |
| 2026-04-29 00:02 | 52.01870 | -105.52864 | 43232 ft | 486 kts | 283° |
| 2026-04-29 00:03 | 52.03372 | -105.63481 | 43241 ft | 486 kts | 283° |
| 2026-04-29 00:03 | 52.04875 | -105.74175 | 43237 ft | 486 kts | 283° |
| 2026-04-29 00:04 | 52.06369 | -105.84887 | 43236 ft | 486 kts | 283° |
| 2026-04-29 00:04 | 52.07852 | -105.95596 | 43235 ft | 485 kts | 283° |
| 2026-04-29 00:05 | 52.09324 | -106.06296 | 43237 ft | 485 kts | 283° |
| 2026-04-29 00:05 | 52.10786 | -106.17007 | 43225 ft | 485 kts | 283° |
| 2026-04-29 00:06 | 52.12238 | -106.27723 | 43205 ft | 485 kts | 283° |
| 2026-04-29 00:06 | 52.13682 | -106.38455 | 43192 ft | 485 kts | 283° |
| 2026-04-29 00:07 | 52.15117 | -106.49204 | 43156 ft | 485 kts | 283° |
| 2026-04-29 00:07 | 52.16539 | -106.59934 | 43143 ft | 485 kts | 283° |
| 2026-04-29 00:08 | 52.17953 | -106.70676 | 43140 ft | 485 kts | 283° |
| 2026-04-29 00:08 | 52.19729 | -106.81258 | 43147 ft | 484 kts | 287° |
| 2026-04-29 00:09 | 52.21560 | -106.91746 | 43233 ft | 484 kts | 286° |
| 2026-04-29 00:09 | 52.23368 | -107.02338 | 43219 ft | 484 kts | 287° |
| 2026-04-29 00:10 | 52.25184 | -107.12908 | 43216 ft | 483 kts | 286° |
| 2026-04-29 00:10 | 52.26975 | -107.23486 | 43216 ft | 484 kts | 286° |
| 2026-04-29 00:11 | 52.28766 | -107.34074 | 43210 ft | 483 kts | 286° |
| 2026-04-29 00:12 | 52.31429 | -107.49971 | 43205 ft | 483 kts | 286° |
| 2026-04-29 00:12 | 52.33194 | -107.60584 | 43203 ft | 483 kts | 286° |
| 2026-04-29 00:13 | 52.34946 | -107.71186 | 43211 ft | 483 kts | 286° |
| 2026-04-29 00:13 | 52.36678 | -107.81731 | 43210 ft | 483 kts | 286° |
| 2026-04-29 00:14 | 52.38413 | -107.92357 | 43217 ft | 483 kts | 286° |
| 2026-04-29 00:14 | 52.40139 | -108.03003 | 43217 ft | 483 kts | 286° |
| 2026-04-29 00:15 | 52.41854 | -108.13641 | 43218 ft | 483 kts | 285° |
| 2026-04-29 00:15 | 52.43558 | -108.24282 | 43218 ft | 482 kts | 285° |
| 2026-04-29 00:16 | 52.45252 | -108.34927 | 43219 ft | 482 kts | 285° |
| 2026-04-29 00:16 | 52.46937 | -108.45582 | 43219 ft | 482 kts | 285° |
| 2026-04-29 00:17 | 52.48601 | -108.56173 | 43219 ft | 482 kts | 285° |
| 2026-04-29 00:17 | 52.50266 | -108.66842 | 43217 ft | 482 kts | 285° |
| 2026-04-29 00:18 | 52.51922 | -108.77520 | 43204 ft | 482 kts | 285° |
| 2026-04-29 00:18 | 52.53565 | -108.88189 | 43215 ft | 482 kts | 285° |
| 2026-04-29 00:19 | 52.55200 | -108.98870 | 43213 ft | 482 kts | 285° |
| 2026-04-29 00:19 | 52.56825 | -109.09559 | 43212 ft | 482 kts | 285° |
| 2026-04-29 00:20 | 52.58170 | -109.18458 | 43210 ft | 482 kts | 285° |
| 2026-04-29 00:20 | 52.59780 | -109.29176 | 43206 ft | 482 kts | 285° |
| 2026-04-29 00:21 | 52.61377 | -109.39888 | 43195 ft | 482 kts | 285° |
| 2026-04-29 00:21 | 52.62966 | -109.50613 | 43199 ft | 482 kts | 285° |
| 2026-04-29 00:22 | 52.64545 | -109.61348 | 43192 ft | 482 kts | 285° |
| 2026-04-29 00:22 | 52.66116 | -109.72100 | 43192 ft | 482 kts | 285° |
| 2026-04-29 00:23 | 52.67677 | -109.82858 | 43198 ft | 482 kts | 284° |
| 2026-04-29 00:23 | 52.69228 | -109.93619 | 43194 ft | 483 kts | 284° |
| 2026-04-29 00:24 | 52.70758 | -110.04313 | 43195 ft | 483 kts | 284° |
| 2026-04-29 00:24 | 52.72284 | -110.15058 | 42915 ft | 474 kts | 284° |
| 2026-04-29 00:24 | 52.73027 | -110.20315 | 42277 ft | 467 kts | 284° |
| 2026-04-29 00:25 | 52.73757 | -110.25499 | 41678 ft | 463 kts | 284° |
| 2026-04-29 00:25 | 52.74483 | -110.30662 | 41076 ft | 462 kts | 284° |
| 2026-04-29 00:25 | 52.75209 | -110.35849 | 40469 ft | 464 kts | 285° |
| 2026-04-29 00:25 | 52.75932 | -110.41040 | 39861 ft | 464 kts | 285° |
| 2026-04-29 00:26 | 52.76654 | -110.46238 | 39252 ft | 465 kts | 285° |
| 2026-04-29 00:26 | 52.77374 | -110.51437 | 38588 ft | 465 kts | 285° |
| 2026-04-29 00:26 | 52.78091 | -110.56631 | 37968 ft | 463 kts | 285° |
| 2026-04-29 00:26 | 52.78804 | -110.61821 | 37363 ft | 463 kts | 285° |
| 2026-04-29 00:27 | 52.79516 | -110.67012 | 36757 ft | 463 kts | 285° |
| 2026-04-29 00:27 | 52.80225 | -110.72200 | 36148 ft | 463 kts | 285° |
| 2026-04-29 00:27 | 52.80930 | -110.77390 | 35537 ft | 463 kts | 285° |
| 2026-04-29 00:27 | 52.81635 | -110.82592 | 34931 ft | 463 kts | 285° |
| 2026-04-29 00:28 | 52.82337 | -110.87788 | 34322 ft | 462 kts | 285° |
| 2026-04-29 00:28 | 52.83035 | -110.92968 | 33676 ft | 462 kts | 285° |
| 2026-04-29 00:28 | 52.83733 | -110.98167 | 33064 ft | 463 kts | 285° |
| 2026-04-29 00:28 | 52.84430 | -111.03383 | 32453 ft | 464 kts | 284° |
| 2026-04-29 00:29 | 52.85118 | -111.08564 | 31843 ft | 458 kts | 284° |
| 2026-04-29 00:29 | 52.85787 | -111.13610 | 31251 ft | 453 kts | 284° |
| 2026-04-29 00:29 | 52.86458 | -111.18680 | 30656 ft | 448 kts | 285° |
| 2026-04-29 00:29 | 52.87140 | -111.23673 | 30033 ft | 443 kts | 286° |
| 2026-04-29 00:30 | 52.87885 | -111.28588 | 29355 ft | 438 kts | 287° |
| 2026-04-29 00:30 | 52.88620 | -111.33456 | 28697 ft | 434 kts | 286° |
| 2026-04-29 00:30 | 52.89301 | -111.38294 | 28071 ft | 430 kts | 285° |
| 2026-04-29 00:30 | 52.89968 | -111.43097 | 27455 ft | 426 kts | 285° |
| 2026-04-29 00:31 | 52.90654 | -111.47855 | 26857 ft | 422 kts | 286° |
| 2026-04-29 00:31 | 52.91338 | -111.52570 | 26282 ft | 419 kts | 285° |
| 2026-04-29 00:31 | 52.92003 | -111.57257 | 25725 ft | 415 kts | 285° |
| 2026-04-29 00:31 | 52.92653 | -111.61896 | 25191 ft | 412 kts | 285° |
| 2026-04-29 00:32 | 52.93303 | -111.66502 | 24660 ft | 409 kts | 285° |
| 2026-04-29 00:32 | 52.93950 | -111.71079 | 24152 ft | 406 kts | 285° |
| 2026-04-29 00:32 | 52.94588 | -111.75619 | 23631 ft | 403 kts | 285° |
| 2026-04-29 00:32 | 52.95209 | -111.80070 | 23243 ft | 399 kts | 284° |
| 2026-04-29 00:33 | 52.95836 | -111.84569 | 22963 ft | 399 kts | 284° |
| 2026-04-29 00:33 | 52.96458 | -111.89037 | 22434 ft | 396 kts | 284° |
| 2026-04-29 00:33 | 52.97072 | -111.93471 | 21911 ft | 393 kts | 284° |
| 2026-04-29 00:33 | 52.97682 | -111.97877 | 21389 ft | 390 kts | 284° |
| 2026-04-29 00:34 | 52.98284 | -112.02248 | 20862 ft | 387 kts | 284° |
| 2026-04-29 00:34 | 52.98882 | -112.06601 | 20345 ft | 385 kts | 284° |
| 2026-04-29 00:34 | 52.99472 | -112.10913 | 19836 ft | 382 kts | 284° |
| 2026-04-29 00:34 | 53.00058 | -112.15201 | 19327 ft | 379 kts | 284° |
| 2026-04-29 00:35 | 53.00639 | -112.19464 | 18825 ft | 377 kts | 284° |
| 2026-04-29 00:35 | 53.01213 | -112.23691 | 18301 ft | 374 kts | 284° |
| 2026-04-29 00:35 | 53.01784 | -112.27901 | 17636 ft | 373 kts | 284° |
| 2026-04-29 00:35 | 53.02338 | -112.32013 | 17229 ft | 369 kts | 284° |
| 2026-04-29 00:36 | 53.02896 | -112.36150 | 16742 ft | 365 kts | 284° |
| 2026-04-29 00:36 | 53.03447 | -112.40255 | 16256 ft | 362 kts | 284° |
| 2026-04-29 00:36 | 53.03993 | -112.44334 | 15782 ft | 360 kts | 285° |
| 2026-04-29 00:36 | 53.04534 | -112.48383 | 15304 ft | 358 kts | 285° |
| 2026-04-29 00:37 | 53.05070 | -112.52408 | 14831 ft | 355 kts | 285° |
| 2026-04-29 00:37 | 53.05601 | -112.56401 | 14362 ft | 353 kts | 285° |
| 2026-04-29 00:37 | 53.06127 | -112.60377 | 13880 ft | 350 kts | 285° |
| 2026-04-29 00:37 | 53.06647 | -112.64315 | 13397 ft | 348 kts | 285° |
| 2026-04-29 00:38 | 53.07162 | -112.68230 | 12939 ft | 346 kts | 285° |
| 2026-04-29 00:38 | 53.07673 | -112.72124 | 12483 ft | 344 kts | 285° |
| 2026-04-29 00:38 | 53.08181 | -112.76003 | 12031 ft | 342 kts | 285° |
| 2026-04-29 00:38 | 53.08684 | -112.79851 | 11574 ft | 340 kts | 285° |
| 2026-04-29 00:39 | 53.09177 | -112.83637 | 11128 ft | 325 kts | 284° |
| 2026-04-29 00:39 | 53.09632 | -112.87173 | 10705 ft | 294 kts | 284° |
| 2026-04-29 00:39 | 53.10052 | -112.90419 | 10324 ft | 285 kts | 285° |
| 2026-04-29 00:39 | 53.10465 | -112.93584 | 9941 ft | 274 kts | 285° |
| 2026-04-29 00:40 | 53.10863 | -112.96656 | 9567 ft | 270 kts | 285° |
| 2026-04-29 00:40 | 53.11255 | -112.99701 | 9206 ft | 268 kts | 285° |
| 2026-04-29 00:40 | 53.11644 | -113.02734 | 8851 ft | 266 kts | 285° |
| 2026-04-29 00:40 | 53.12028 | -113.05729 | 8506 ft | 264 kts | 285° |
| 2026-04-29 00:41 | 53.12410 | -113.08711 | 8158 ft | 263 kts | 285° |
| 2026-04-29 00:41 | 53.12790 | -113.11686 | 7809 ft | 262 kts | 285° |
| 2026-04-29 00:41 | 53.13168 | -113.14653 | 7463 ft | 261 kts | 284° |
| 2026-04-29 00:41 | 53.13539 | -113.17567 | 7119 ft | 260 kts | 284° |
| 2026-04-29 00:42 | 53.13911 | -113.20505 | 6774 ft | 259 kts | 284° |
| 2026-04-29 00:42 | 53.14283 | -113.23440 | 6421 ft | 257 kts | 284° |
| 2026-04-29 00:42 | 53.14640 | -113.26279 | 6070 ft | 245 kts | 284° |
| 2026-04-29 00:42 | 53.14982 | -113.29000 | 5750 ft | 234 kts | 284° |
| 2026-04-29 00:43 | 53.15311 | -113.31605 | 5443 ft | 226 kts | 284° |
| 2026-04-29 00:43 | 53.15676 | -113.34122 | 5120 ft | 219 kts | 292° |
| 2026-04-29 00:43 | 53.16550 | -113.36125 | 5076 ft | 212 kts | 316° |
| 2026-04-29 00:43 | 53.17627 | -113.37890 | 4998 ft | 219 kts | 317° |
| 2026-04-29 00:44 | 53.18702 | -113.39676 | 4755 ft | 217 kts | 316° |
| 2026-04-29 00:44 | 53.19774 | -113.41461 | 4529 ft | 218 kts | 316° |
| 2026-04-29 00:44 | 53.20801 | -113.43174 | 4346 ft | 199 kts | 317° |
| 2026-04-29 00:44 | 53.21721 | -113.44715 | 4068 ft | 174 kts | 317° |
| 2026-04-29 00:45 | 53.22573 | -113.46137 | 3915 ft | 169 kts | 317° |
| 2026-04-29 00:45 | 53.23386 | -113.47498 | 3777 ft | 151 kts | 317° |
| 2026-04-29 00:45 | 53.24068 | -113.48643 | 3630 ft | 133 kts | 317° |
| 2026-04-29 00:45 | 53.24686 | -113.49678 | 3572 ft | 125 kts | 318° |
| 2026-04-29 00:46 | 53.25307 | -113.50712 | 3404 ft | 124 kts | 319° |
| 2026-04-29 00:46 | 53.25912 | -113.51711 | 3201 ft | 124 kts | 319° |
| 2026-04-29 00:46 | 53.26529 | -113.52742 | 3030 ft | 127 kts | 319° |
| 2026-04-29 00:46 | 53.27154 | -113.53778 | 2830 ft | 127 kts | 319° |
| 2026-04-29 00:47 | 53.27776 | -113.54823 | 2660 ft | 125 kts | 319° |
| 2026-04-29 00:47 | 53.28383 | -113.55835 | 2500 ft | 124 kts | 317° |
| 2026-04-29 00:47 | 53.28988 | -113.56837 | 2393 ft | 116 kts | 319° |
| 2026-04-29 00:47 | 53.29481 | -113.57654 | 2378 ft | 74 kts | 316° |
| 2026-04-29 00:48 | 53.29738 | -113.58085 | 2380 ft | 33 kts | 315° |
| 2026-04-29 00:48 | 53.29863 | -113.58202 | 2382 ft | 17 kts | 359° |
| 2026-04-29 00:48 | 53.29961 | -113.58203 | 2381 ft | 11 kts | 360° |
| 2026-04-29 00:48 | 53.30031 | -113.58204 | 2381 ft | 9 kts | 359° |
| 2026-04-29 00:49 | 53.30091 | -113.58213 | 2381 ft | 8 kts | 332° |
| 2026-04-29 00:49 | 53.30140 | -113.58278 | 2381 ft | 11 kts | 312° |
| 2026-04-29 00:49 | 53.30210 | -113.58397 | 2381 ft | 16 kts | 315° |
| 2026-04-29 00:49 | 53.30292 | -113.58534 | 2381 ft | 19 kts | 315° |
| 2026-04-29 00:50 | 53.30378 | -113.58678 | 2381 ft | 17 kts | 315° |
| 2026-04-29 00:50 | 53.30459 | -113.58814 | 2381 ft | 16 kts | 315° |
| 2026-04-29 00:50 | 53.30537 | -113.58944 | 2381 ft | 15 kts | 315° |
| 2026-04-29 00:50 | 53.30611 | -113.59067 | 2381 ft | 15 kts | 315° |
| 2026-04-29 00:51 | 53.30681 | -113.59186 | 2381 ft | 14 kts | 315° |
| 2026-04-29 00:51 | 53.30750 | -113.59296 | 2381 ft | 13 kts | 318° |
| 2026-04-29 00:51 | 53.30811 | -113.59293 | 2381 ft | 10 kts | 31° |
| 2026-04-29 00:51 | 53.30887 | -113.59210 | 2381 ft | 17 kts | 34° |
| 2026-04-29 00:52 | 53.30986 | -113.59094 | 2381 ft | 17 kts | 35° |
| 2026-04-29 00:52 | 53.31079 | -113.58986 | 2380 ft | 16 kts | 35° |
| 2026-04-29 00:52 | 53.31167 | -113.58883 | 2381 ft | 15 kts | 34° |
| 2026-04-29 00:52 | 53.31271 | -113.58762 | 2381 ft | 21 kts | 35° |
| 2026-04-29 00:53 | 53.31387 | -113.58626 | 2381 ft | 20 kts | 35° |
| 2026-04-29 00:53 | 53.31497 | -113.58498 | 2381 ft | 19 kts | 35° |
| 2026-04-29 00:53 | 53.31605 | -113.58373 | 2381 ft | 21 kts | 34° |
| 2026-04-29 00:53 | 53.31726 | -113.58231 | 2381 ft | 21 kts | 35° |
| 2026-04-29 00:54 | 53.31840 | -113.58098 | 2381 ft | 19 kts | 35° |
| 2026-04-29 00:54 | 53.31947 | -113.57973 | 2381 ft | 18 kts | 35° |
| 2026-04-29 00:54 | 53.32047 | -113.57856 | 2381 ft | 17 kts | 35° |
| 2026-04-29 00:54 | 53.32146 | -113.57740 | 2381 ft | 19 kts | 35° |
| 2026-04-29 00:55 | 53.32257 | -113.57611 | 2381 ft | 13 kts | 35° |
| 2026-04-29 00:55 | 53.32262 | -113.57506 | 2381 ft | 10 kts | 126° |
| 2026-04-29 00:55 | 53.32225 | -113.57414 | 2381 ft | 8 kts | 110° |
| 2026-04-29 00:55 | 53.32250 | -113.57365 | 2381 ft | 5 kts | 13° |
| 2026-04-29 00:56 | 53.32260 | -113.57351 | 2381 ft | 0 kts | 84° |